createdAt,value
2024-03-05T00:00:47.863Z,24.52
2024-03-05T00:03:49.941Z,24.45
2024-03-05T00:06:52.017Z,22.65
2024-03-05T00:09:53.934Z,23.83
2024-03-05T00:12:55.894Z,22.85
2024-03-05T00:15:58.517Z,22.45
2024-03-05T00:19:00.610Z,22.38
2024-03-05T00:22:02.393Z,21.15
2024-03-05T00:25:05.516Z,20.17
2024-03-05T00:28:07.400Z,18.83
2024-03-05T00:31:09.416Z,18.98
2024-03-05T00:34:11.325Z,18.75
2024-03-05T00:37:13.348Z,19.17
2024-03-05T00:40:15.993Z,18.65
2024-03-05T00:43:18.102Z,18.52
2024-03-05T00:46:22.193Z,20.02
2024-03-05T00:49:24.461Z,20.05
2024-03-05T00:52:26.565Z,19.30
2024-03-05T00:55:29.860Z,19.75
2024-03-05T00:58:32.018Z,18.38
2024-03-05T01:01:35.111Z,19.38
2024-03-05T01:04:37.819Z,20.52
2024-03-05T01:07:40.667Z,19.73
2024-03-05T01:10:46.615Z,19.15
2024-03-05T01:13:48.702Z,19.00
2024-03-05T01:16:50.754Z,19.05
2024-03-05T01:19:52.871Z,19.02
2024-03-05T01:22:54.982Z,17.08
2024-03-05T01:25:57.130Z,17.20
2024-03-05T01:28:59.200Z,17.17
2024-03-05T01:32:03.318Z,17.42
2024-03-05T01:35:10.387Z,17.88
2024-03-05T01:38:12.292Z,16.45
2024-03-05T01:41:14.687Z,16.65
2024-03-05T01:44:16.688Z,15.65
2024-03-05T01:47:18.943Z,16.17
2024-03-05T01:50:20.959Z,15.80
2024-03-05T01:53:25.149Z,15.65
2024-03-05T01:56:27.074Z,15.20
2024-03-05T01:59:29.135Z,15.75
2024-03-05T02:02:31.532Z,15.50
2024-03-05T02:05:34.156Z,16.00
2024-03-05T02:08:36.653Z,15.68
2024-03-05T02:11:52.128Z,15.13
2024-03-05T02:14:58.241Z,15.07
2024-03-05T02:18:00.227Z,15.88
2024-03-05T02:21:04.398Z,16.27
2024-03-05T02:24:06.818Z,15.25
2024-03-05T02:27:11.948Z,15.25
2024-03-05T02:30:16.555Z,15.45
2024-03-05T02:33:20.088Z,14.40
2024-03-05T02:36:24.741Z,14.70
2024-03-05T02:39:28.556Z,15.20
2024-03-05T02:42:30.485Z,15.57
2024-03-05T02:45:32.411Z,14.32
2024-03-05T02:48:34.438Z,14.02
2024-03-05T02:51:36.489Z,14.57
2024-03-05T02:54:41.127Z,14.18
2024-03-05T02:57:43.267Z,14.18
2024-03-05T03:00:45.426Z,14.27
2024-03-05T03:03:47.420Z,13.85
2024-03-05T03:06:49.381Z,13.98
2024-03-05T03:09:51.372Z,13.50
2024-03-05T03:12:53.966Z,13.55
2024-03-05T03:15:55.871Z,13.38
2024-03-05T03:18:57.764Z,13.48
2024-03-05T03:21:59.775Z,13.07
2024-03-05T03:25:01.765Z,13.88
2024-03-05T03:28:04.063Z,13.57
2024-03-05T03:35:59.922Z,13.80
2024-03-05T03:39:01.853Z,15.38
2024-03-05T03:42:04.221Z,14.02
2024-03-05T03:45:06.464Z,15.35
2024-03-05T03:48:08.816Z,14.05
2024-03-05T03:51:11.076Z,14.50
2024-03-05T03:54:13.023Z,14.82
2024-03-05T03:57:14.948Z,14.27
2024-03-05T04:00:20.307Z,14.15
2024-03-05T04:03:22.433Z,13.73
2024-03-05T04:06:24.410Z,15.07
2024-03-05T04:09:26.428Z,14.82
2024-03-05T04:12:29.066Z,15.15
2024-03-05T04:15:31.168Z,15.60
2024-03-05T04:18:33.237Z,15.45
2024-03-05T04:21:45.889Z,15.93
2024-03-05T04:24:53.898Z,14.52
2024-03-05T04:30:59.207Z,13.85
2024-03-05T04:34:04.104Z,14.98
2024-03-05T04:37:10.154Z,14.60
2024-03-05T04:40:12.634Z,14.27
2024-03-05T04:43:14.584Z,14.52
2024-03-05T04:46:16.656Z,13.30
2024-03-05T04:49:18.621Z,14.20
2024-03-05T04:52:20.651Z,14.63
2024-03-05T04:55:23.507Z,13.18
2024-03-05T04:58:25.768Z,13.98
2024-03-05T05:01:27.864Z,13.32
2024-03-05T05:04:30.090Z,13.77
2024-03-05T05:07:32.094Z,14.25
2024-03-05T05:10:35.297Z,14.38
2024-03-05T05:13:37.227Z,14.38
2024-03-05T05:16:39.261Z,13.55
2024-03-05T05:19:42.331Z,14.10
2024-03-05T05:22:45.888Z,14.73
2024-03-05T05:25:48.054Z,12.98
2024-03-05T05:28:51.488Z,13.88
2024-03-05T05:31:53.595Z,13.02
2024-03-05T05:34:55.699Z,13.38
2024-03-05T05:37:58.777Z,12.45
2024-03-05T05:41:00.831Z,12.48
2024-03-05T05:44:02.899Z,12.55
2024-03-05T05:47:05.120Z,12.80
2024-03-05T05:50:18.786Z,12.95
2024-03-05T05:53:20.938Z,11.75
2024-03-05T05:56:22.915Z,13.07
2024-03-05T05:59:26.463Z,12.27
2024-03-05T06:02:29.163Z,12.45
2024-03-05T06:05:36.716Z,13.18
2024-03-05T06:08:38.771Z,12.90
2024-03-05T06:11:40.962Z,13.52
2024-03-05T06:14:43.031Z,15.32
2024-03-05T06:17:46.528Z,17.20
2024-03-05T06:20:50.726Z,18.02
2024-03-05T06:23:52.540Z,16.70
2024-03-05T06:26:54.641Z,15.48
2024-03-05T06:29:56.841Z,15.77
2024-03-05T06:32:58.861Z,16.27
2024-03-05T06:36:03.080Z,15.95
2024-03-05T06:39:10.446Z,16.65
2024-03-05T06:42:14.705Z,16.60
2024-03-05T06:45:26.111Z,15.90
2024-03-05T06:48:31.907Z,14.77
2024-03-05T06:51:43.433Z,15.02
2024-03-05T06:55:03.998Z,14.75
2024-03-05T06:58:06.002Z,15.50
2024-03-05T07:01:10.886Z,14.85
2024-03-05T07:04:12.705Z,13.65
2024-03-05T07:07:14.822Z,14.38
2024-03-05T07:10:22.579Z,13.23
2024-03-05T07:13:24.829Z,13.75
2024-03-05T07:16:26.878Z,13.32
2024-03-05T07:19:28.985Z,13.07
2024-03-05T07:22:31.028Z,14.02
2024-03-05T07:25:33.039Z,13.50
2024-03-05T07:28:35.097Z,13.80
2024-03-05T07:31:37.367Z,14.73
2024-03-05T07:34:41.113Z,15.15
2024-03-05T07:37:47.970Z,14.60
2024-03-05T07:40:50.466Z,13.73
2024-03-05T07:43:52.650Z,13.90
2024-03-05T07:46:56.089Z,13.98
2024-03-05T07:49:58.141Z,14.18
2024-03-05T07:53:00.438Z,13.95
2024-03-05T07:56:02.540Z,14.10
2024-03-05T07:59:04.567Z,13.85
2024-03-05T08:02:08.818Z,14.05
2024-03-05T08:05:11.113Z,14.35
2024-03-05T08:08:13.272Z,13.13
2024-03-05T08:11:15.237Z,12.85
2024-03-05T08:14:17.175Z,13.00
2024-03-05T08:17:19.959Z,12.68
2024-03-05T08:20:26.945Z,12.70
2024-03-05T08:23:28.975Z,12.90
2024-03-05T08:26:31.011Z,12.45
2024-03-05T08:29:33.034Z,11.55
2024-03-05T08:32:41.709Z,11.27
2024-03-05T08:35:44.671Z,11.65
2024-03-05T08:38:50.379Z,11.25
2024-03-05T08:41:52.667Z,11.05
2024-03-05T08:44:54.701Z,11.15
2024-03-05T08:47:56.823Z,10.80
2024-03-05T08:51:01.988Z,10.13
2024-03-05T08:54:04.016Z,9.70
2024-03-05T08:57:07.047Z,10.25
2024-03-05T09:00:26.876Z,9.60
2024-03-05T09:03:38.177Z,9.35
2024-03-05T09:06:42.010Z,9.95
2024-03-05T09:09:44.026Z,10.18
2024-03-05T09:12:45.985Z,10.52
2024-03-05T09:15:48.159Z,12.05
2024-03-05T09:18:50.161Z,15.07
2024-03-05T09:21:52.190Z,15.43
2024-03-05T09:24:54.340Z,13.52
2024-03-05T09:27:56.439Z,12.18
2024-03-05T09:30:58.462Z,12.05
2024-03-05T09:34:03.829Z,13.23
2024-03-05T09:37:06.625Z,10.93
2024-03-05T09:40:17.116Z,10.68
2024-03-05T09:43:23.213Z,10.07
2024-03-05T09:46:27.660Z,9.80
2024-03-05T09:49:30.924Z,10.93
2024-03-05T09:52:35.236Z,11.70
2024-03-05T09:55:37.596Z,12.52
2024-03-05T09:58:40.833Z,11.38
2024-03-05T10:01:46.015Z,12.45
2024-03-05T10:04:48.392Z,12.65
2024-03-05T10:07:50.962Z,12.02
2024-03-05T10:11:04.417Z,13.30
2024-03-05T10:14:12.373Z,11.63
2024-03-05T10:17:14.432Z,11.13
2024-03-05T10:20:29.736Z,10.90
2024-03-05T10:23:31.902Z,10.65
2024-03-05T10:26:34.067Z,11.15
2024-03-05T10:29:39.198Z,10.32
2024-03-05T10:32:41.589Z,9.25
2024-03-05T10:35:51.356Z,11.35
2024-03-05T10:38:54.666Z,10.15
2024-03-05T10:42:01.121Z,11.13
2024-03-05T10:45:03.508Z,9.48
2024-03-05T10:48:06.371Z,8.82
2024-03-05T10:51:14.318Z,8.82
2024-03-05T10:54:16.407Z,8.93
2024-03-05T10:57:20.227Z,9.38
2024-03-05T11:00:25.369Z,8.38
2024-03-05T11:03:42.892Z,7.50
2024-03-05T11:06:48.429Z,7.00
2024-03-05T11:09:51.279Z,7.75
2024-03-05T11:12:57.311Z,7.57
2024-03-05T11:16:01.630Z,8.68
2024-03-05T11:19:10.633Z,7.50
2024-03-05T11:22:27.756Z,7.57
2024-03-05T11:25:32.170Z,7.10
2024-03-05T11:28:37.524Z,9.68
2024-03-05T11:31:52.298Z,9.13
2024-03-05T11:35:01.947Z,7.07
2024-03-05T11:38:07.297Z,7.45
2024-03-05T11:41:10.157Z,7.40
2024-03-05T11:44:14.408Z,7.25
2024-03-05T11:47:21.203Z,5.90
2024-03-05T11:50:25.244Z,6.70
2024-03-05T11:53:28.284Z,7.05
2024-03-05T11:56:30.454Z,6.80
2024-03-05T11:59:39.884Z,8.02
2024-03-05T12:02:59.798Z,6.85
2024-03-05T12:06:04.778Z,6.35
2024-03-05T12:09:21.763Z,6.50
2024-03-05T12:12:27.401Z,6.40
2024-03-05T12:18:35.563Z,5.50
2024-03-05T12:21:43.786Z,5.47
2024-03-05T12:24:46.201Z,5.43
2024-03-05T12:27:51.198Z,5.60
2024-03-05T12:30:53.763Z,4.60
2024-03-05T12:33:56.851Z,4.75
2024-03-05T12:36:58.858Z,4.93
2024-03-05T12:40:01.498Z,5.55
2024-03-05T12:43:11.624Z,6.15
2024-03-05T12:46:20.635Z,5.50
2024-03-05T12:49:22.617Z,4.85
2024-03-05T12:52:24.775Z,5.25
2024-03-05T12:55:27.996Z,5.60
2024-03-05T12:58:46.411Z,5.65
2024-03-05T13:01:49.609Z,5.25
2024-03-05T13:04:53.092Z,5.82
2024-03-05T13:07:56.157Z,5.15
2024-03-05T13:11:00.276Z,5.70
2024-03-05T13:14:24.827Z,5.57
2024-03-05T13:17:30.112Z,5.53
2024-03-05T13:20:37.150Z,5.95
2024-03-05T13:23:41.635Z,5.45
2024-03-05T13:26:50.206Z,5.40
2024-03-05T13:30:01.535Z,5.55
2024-03-05T13:33:12.889Z,4.90
2024-03-05T13:36:14.928Z,5.40
2024-03-05T13:39:23.455Z,5.50
2024-03-05T13:42:25.790Z,7.00
2024-03-05T13:45:28.882Z,6.30
2024-03-05T13:48:34.691Z,5.28
2024-03-05T13:51:39.219Z,5.35
2024-03-05T13:54:41.268Z,5.38
2024-03-05T13:57:43.308Z,5.40
2024-03-05T14:00:45.347Z,5.93
2024-03-05T14:03:47.430Z,6.05
2024-03-05T14:06:49.866Z,5.63
2024-03-05T14:09:51.882Z,7.70
2024-03-05T14:12:55.119Z,5.65
2024-03-05T14:15:57.189Z,5.82
2024-03-05T14:19:00.110Z,5.28
2024-03-05T14:22:03.809Z,5.68
2024-03-05T14:25:09.322Z,6.55
2024-03-05T14:28:15.455Z,5.25
2024-03-05T14:31:18.666Z,5.60
2024-03-05T14:34:24.804Z,5.28
2024-03-05T14:37:28.957Z,5.45
2024-03-05T14:40:33.423Z,5.45
2024-03-05T14:43:36.466Z,4.50
2024-03-05T14:46:40.543Z,4.80
2024-03-05T14:49:43.666Z,4.97
2024-03-05T14:52:45.822Z,5.20
2024-03-05T14:55:47.879Z,4.60
2024-03-05T14:58:50.006Z,5.20
2024-03-05T15:01:53.694Z,5.60
2024-03-05T15:04:57.739Z,5.45
2024-03-05T15:07:59.752Z,5.30
2024-03-05T15:11:02.176Z,5.65
2024-03-05T15:14:04.673Z,5.57
2024-03-05T15:17:08.972Z,6.18
2024-03-05T15:20:12.808Z,7.20
2024-03-05T15:23:15.069Z,6.68
2024-03-05T15:26:17.303Z,7.85
2024-03-05T15:29:19.588Z,10.23
2024-03-05T15:32:22.521Z,10.20
2024-03-05T15:35:25.314Z,11.90
2024-03-05T15:38:27.297Z,8.85
2024-03-05T15:41:30.010Z,7.18
2024-03-05T15:44:32.031Z,14.75
2024-03-05T15:47:38.405Z,11.90
2024-03-05T15:50:43.448Z,15.68
2024-03-05T15:53:45.556Z,16.05
2024-03-05T15:56:58.538Z,22.20
2024-03-05T16:00:12.460Z,24.45
2024-03-05T16:03:14.696Z,21.45
2024-03-05T16:06:19.421Z,20.63
2024-03-05T16:09:21.867Z,19.45
2024-03-05T16:12:27.472Z,17.58
2024-03-05T16:15:32.548Z,17.08
2024-03-05T16:18:34.973Z,17.35
2024-03-05T16:21:37.525Z,17.33
2024-03-05T16:24:39.844Z,17.80
2024-03-05T16:27:46.191Z,17.48
2024-03-05T16:30:49.421Z,17.73
2024-03-05T16:33:51.399Z,18.38
2024-03-05T16:36:53.296Z,17.92
2024-03-05T16:39:55.224Z,17.40
2024-03-05T16:42:58.240Z,17.77
2024-03-05T16:46:01.331Z,16.88
2024-03-05T16:49:04.910Z,17.48
2024-03-05T16:52:07.947Z,17.75
2024-03-05T16:55:14.576Z,18.58
2024-03-05T16:58:19.124Z,19.88
2024-03-05T17:01:23.310Z,22.08
2024-03-05T17:04:29.035Z,21.80
2024-03-05T17:07:33.723Z,19.52
2024-03-05T17:10:36.580Z,18.10
2024-03-05T17:13:42.758Z,17.25
2024-03-05T17:16:47.065Z,15.93
2024-03-05T17:19:49.057Z,17.13
2024-03-05T17:22:53.567Z,15.75
2024-03-05T17:25:57.253Z,15.35
2024-03-05T17:29:06.683Z,16.33
2024-03-05T17:32:11.016Z,14.15
2024-03-05T17:35:13.970Z,13.90
2024-03-05T17:38:16.023Z,14.23
2024-03-05T17:41:18.157Z,12.82
2024-03-05T17:44:20.276Z,11.98
2024-03-05T17:47:22.298Z,10.57
2024-03-05T17:50:26.029Z,9.60
2024-03-05T17:53:27.919Z,8.43
2024-03-05T17:56:31.527Z,8.05
2024-03-05T17:59:33.872Z,8.15
2024-03-05T18:02:36.616Z,8.88
2024-03-05T18:05:38.696Z,9.63
2024-03-05T18:08:40.879Z,10.40
2024-03-05T18:11:43.024Z,10.55
2024-03-05T18:14:45.223Z,10.80
2024-03-05T18:17:51.904Z,10.77
2024-03-05T18:20:55.282Z,10.30
2024-03-05T18:23:59.146Z,11.00
2024-03-05T18:27:05.174Z,11.70
2024-03-05T18:30:10.952Z,11.50
2024-03-05T18:33:15.466Z,13.98
2024-03-05T18:36:20.859Z,12.18
2024-03-05T18:39:24.176Z,12.95
2024-03-05T18:42:29.784Z,13.93
2024-03-05T18:45:33.270Z,14.38
2024-03-05T18:48:35.260Z,15.73
2024-03-05T18:51:37.173Z,15.73
2024-03-05T18:54:40.724Z,16.65
2024-03-05T18:57:44.412Z,17.85
2024-03-05T19:00:47.850Z,17.00
2024-03-05T19:03:52.811Z,17.98
2024-03-05T19:06:56.282Z,18.25
2024-03-05T19:09:59.211Z,18.23
2024-03-05T19:13:07.318Z,19.25
2024-03-05T19:16:09.508Z,17.75
2024-03-05T19:19:11.959Z,18.25
2024-03-05T19:22:13.872Z,17.92
2024-03-05T19:25:18.613Z,18.88
2024-03-05T19:28:21.065Z,18.98
2024-03-05T19:31:23.078Z,18.75
2024-03-05T19:34:26.035Z,17.55
2024-03-05T19:37:28.207Z,18.67
2024-03-05T19:40:30.156Z,18.10
2024-03-05T19:43:37.612Z,18.15
2024-03-05T19:46:40.680Z,17.83
2024-03-05T19:49:43.499Z,17.77
2024-03-05T19:52:47.016Z,18.05
2024-03-05T19:55:49.043Z,18.25
2024-03-05T19:58:51.047Z,17.60
2024-03-05T20:01:53.106Z,17.48
2024-03-05T20:04:55.109Z,18.75
2024-03-05T20:07:57.127Z,18.10
2024-03-05T20:10:59.374Z,18.88
2024-03-05T20:14:01.416Z,17.92
2024-03-05T20:17:07.331Z,19.02
2024-03-05T20:20:18.946Z,20.45
2024-03-05T20:23:24.322Z,21.45
2024-03-05T20:26:26.435Z,22.25
2024-03-05T20:29:30.029Z,25.75
2024-03-05T20:32:32.399Z,26.67
2024-03-05T20:35:38.638Z,23.38
2024-03-05T20:38:42.325Z,20.48
2024-03-05T20:41:46.559Z,19.65
2024-03-05T20:44:48.503Z,19.95
2024-03-05T20:47:50.433Z,17.80
2024-03-05T20:50:52.543Z,17.65
2024-03-05T20:53:54.847Z,17.33
2024-03-05T20:56:57.192Z,16.25
2024-03-05T21:00:10.293Z,16.05
2024-03-05T21:03:12.647Z,16.63
2024-03-05T21:06:14.858Z,15.98
2024-03-05T21:09:17.009Z,16.80
2024-03-05T21:12:19.071Z,16.30
2024-03-05T21:15:22.498Z,17.17
2024-03-05T21:18:24.789Z,16.38
2024-03-05T21:21:26.812Z,15.98
2024-03-05T21:24:30.354Z,15.27
2024-03-05T21:27:40.209Z,14.45
2024-03-05T21:30:43.629Z,13.88
2024-03-05T21:33:45.565Z,13.90
2024-03-05T21:36:47.543Z,13.90
2024-03-05T21:39:49.791Z,13.18
2024-03-05T21:42:51.775Z,13.68
2024-03-05T21:45:53.661Z,12.93
2024-03-05T21:48:55.898Z,13.27
2024-03-05T21:51:59.247Z,13.88
2024-03-05T21:55:01.272Z,13.75
2024-03-05T21:58:03.611Z,14.13
2024-03-05T22:01:06.047Z,15.07
2024-03-05T22:04:08.193Z,15.02
2024-03-05T22:07:10.134Z,14.65
2024-03-05T22:10:13.162Z,14.10
2024-03-05T22:13:15.196Z,15.20
2024-03-05T22:16:17.165Z,17.17
2024-03-05T22:19:19.181Z,17.25
2024-03-05T22:22:24.135Z,16.50
2024-03-05T22:25:26.396Z,18.00
2024-03-05T22:28:28.277Z,17.15
2024-03-05T22:31:31.342Z,19.05
2024-03-05T22:34:34.806Z,21.13
2024-03-05T22:37:40.081Z,25.17
2024-03-05T22:40:42.853Z,24.20
2024-03-05T22:43:45.205Z,23.20
2024-03-05T22:46:48.688Z,23.10
2024-03-05T22:49:50.594Z,24.38
2024-03-05T22:52:53.429Z,23.50
2024-03-05T22:55:56.969Z,20.15
2024-03-05T22:58:59.965Z,20.10
2024-03-05T23:02:02.271Z,16.58
2024-03-05T23:05:05.770Z,16.30
2024-03-05T23:08:13.505Z,16.85
2024-03-05T23:11:16.362Z,14.93
2024-03-05T23:14:18.484Z,14.02
2024-03-05T23:17:20.506Z,14.23
2024-03-05T23:20:22.752Z,13.32
2024-03-05T23:23:24.731Z,13.98
2024-03-05T23:26:27.653Z,14.45
2024-03-05T23:29:29.777Z,13.13
2024-03-05T23:32:33.544Z,13.20
2024-03-05T23:35:35.708Z,13.32
2024-03-05T23:38:37.599Z,12.85
2024-03-05T23:41:40.979Z,13.50
2024-03-05T23:44:43.096Z,13.82
2024-03-05T23:47:45.585Z,13.20
2024-03-05T23:50:47.719Z,12.90
2024-03-05T23:53:49.638Z,13.52
2024-03-05T23:56:51.576Z,14.30
2024-03-05T23:59:53.873Z,13.68
